13:27
Airports
History
Links
Donate
Help keep this website running!
PayPal
Bitcoin
This page is community maintained. The information is intended for PC simulator navigation or reference.
Always use approved charts for navigation.
YGLX
GlendevieEdited 30-Jun-2011
Glendevie (YGLX)
Glendevie, Tasmania, Australia (7109)
4
Lat/Lng:43° 13' 51.51" S / 146° 59' 56.16" E
-43.230976 / 146.998933
Elevation:664'ft / 202mMSL
ID / ICAO:YGLX
Runways:1
Longest:12-30
Grass 644m / 2,112ft
(Edited 2011-06-30) [ Sign in to Edit ]
Nearby Weather13:00 GMT 2018-01-19
Nearby weather at YMHB, Hobart located 37.6 nautical miles from YGLX
Altimeter: 30.00
Visibility: 5.6 statute miles
Wind: 7 knots (from 200°)
Temp: 14°c / 57°f
Humidity: 82.1%

METAR: YMHB 191300Z 20007KT 9000 -DZ FEW012 BKN018 14/11 Q1016

(Powered by phpweather)
Runway 12 / 30
Dimensions:643.7 x 25m 2112' x 82'ft
Surface:Grass
Runway 12 [A]Runway 30 [B]
Heading:133°TH 313°TH
Lat:
Lng:
43° 13' 44.32"S
146° 59' 45.76"E
43° 13' 58.71"S
147° 0' 6.55"E
User Notes and Comments
43° 13' 51.51" S / 146° 59' 56.16" E
Distance To
Airport ID:
Nearby Airports
4 Surveyors 5.5 NM
YSUR SE 136°
4 Bruny Island 19.2 NM
YBYI E 90°
4 SANDFLY 20.2 NM
YSFY NNE 31°
(C) Cambridge 36.9 NM
YCBG NE 40°
(C) Hobart 37.6 NM
YMHB ( WX ) NE 43°
4 Maydena (Forestry Commission) 39.2 NM
YDNA NW 325°
4 Bathurst Harbour 44.1 NM
YBHB WSW 252°
VFR Chart
Flight Planning at SkyVector.com